sensor_id;sensor_type;location;lat;lon;timestamp;P1;durP1;ratioP1;P2;durP2;ratioP2
52396;SDS011;38322;53.108;6.308;2023-08-30T05:03:40;10.60;;;9.50;;
52396;SDS011;38322;53.108;6.308;2023-08-30T05:06:06;10.52;;;9.43;;
52396;SDS011;38322;53.108;6.308;2023-08-30T05:08:32;12.25;;;10.15;;
52396;SDS011;38322;53.108;6.308;2023-08-30T05:10:58;15.57;;;10.82;;
52396;SDS011;38322;53.108;6.308;2023-08-30T05:13:24;11.38;;;10.07;;
52396;SDS011;38322;53.108;6.308;2023-08-30T05:15:50;10.20;;;8.88;;
52396;SDS011;38322;53.108;6.308;2023-08-30T05:18:18;13.00;;;11.18;;
52396;SDS011;38322;53.108;6.308;2023-08-30T05:20:44;11.32;;;9.23;;
52396;SDS011;38322;53.108;6.308;2023-08-30T05:23:10;13.25;;;8.85;;
52396;SDS011;38322;53.108;6.308;2023-08-30T05:25:35;12.85;;;9.55;;
52396;SDS011;38322;53.108;6.308;2023-08-30T05:28:01;12.93;;;9.90;;
52396;SDS011;38322;53.108;6.308;2023-08-30T05:30:27;11.40;;;9.65;;
52396;SDS011;38322;53.108;6.308;2023-08-30T05:32:53;9.82;;;8.82;;
52396;SDS011;38322;53.108;6.308;2023-08-30T05:35:19;11.23;;;9.48;;
52396;SDS011;38322;53.108;6.308;2023-08-30T05:37:45;14.98;;;9.52;;
52396;SDS011;38322;53.108;6.308;2023-08-30T05:40:10;14.32;;;10.32;;
52396;SDS011;38322;53.108;6.308;2023-08-30T05:42:40;11.32;;;9.80;;
52396;SDS011;38322;53.108;6.308;2023-08-30T05:45:06;12.98;;;10.30;;
52396;SDS011;38322;53.108;6.308;2023-08-30T05:47:32;11.55;;;9.30;;
52396;SDS011;38322;53.108;6.308;2023-08-30T05:49:58;12.25;;;10.63;;
52396;SDS011;38322;53.108;6.308;2023-08-30T05:52:24;11.77;;;9.32;;
52396;SDS011;38322;53.108;6.308;2023-08-30T05:54:50;11.05;;;9.05;;
52396;SDS011;38322;53.108;6.308;2023-08-30T05:57:16;10.10;;;9.07;;
52396;SDS011;38322;53.108;6.308;2023-08-30T05:59:42;10.00;;;8.25;;
52396;SDS011;38322;53.108;6.308;2023-08-30T06:02:08;10.13;;;9.02;;
52396;SDS011;38322;53.108;6.308;2023-08-30T06:04:35;12.05;;;9.20;;
52396;SDS011;38322;53.108;6.308;2023-08-30T06:07:01;12.85;;;9.93;;
52396;SDS011;38322;53.108;6.308;2023-08-30T06:09:28;11.43;;;9.45;;
52396;SDS011;38322;53.108;6.308;2023-08-30T06:11:54;11.43;;;9.10;;
52396;SDS011;38322;53.108;6.308;2023-08-30T06:14:20;12.63;;;9.88;;
52396;SDS011;38322;53.108;6.308;2023-08-30T06:16:47;11.63;;;8.82;;
52396;SDS011;38322;53.108;6.308;2023-08-30T06:19:14;13.73;;;9.35;;
52396;SDS011;38322;53.108;6.308;2023-08-30T06:21:39;11.35;;;8.90;;
52396;SDS011;38322;53.108;6.308;2023-08-30T06:24:05;14.10;;;9.63;;
52396;SDS011;38322;53.108;6.308;2023-08-30T06:26:31;10.68;;;9.57;;
52396;SDS011;38322;53.108;6.308;2023-08-30T06:28:58;10.13;;;8.65;;
52396;SDS011;38322;53.108;6.308;2023-08-30T06:31:23;13.93;;;10.20;;
52396;SDS011;38322;53.108;6.308;2023-08-30T06:33:50;12.32;;;9.90;;
52396;SDS011;38322;53.108;6.308;2023-08-30T06:36:16;11.00;;;8.73;;
52396;SDS011;38322;53.108;6.308;2023-08-30T06:38:42;13.65;;;9.35;;
52396;SDS011;38322;53.108;6.308;2023-08-30T06:41:08;12.27;;;10.73;;
52396;SDS011;38322;53.108;6.308;2023-08-30T06:43:34;13.20;;;9.05;;
52396;SDS011;38322;53.108;6.308;2023-08-30T06:46:00;12.38;;;10.18;;
52396;SDS011;38322;53.108;6.308;2023-08-30T06:48:26;11.23;;;9.43;;
52396;SDS011;38322;53.108;6.308;2023-08-30T06:50:52;13.32;;;9.55;;
52396;SDS011;38322;53.108;6.308;2023-08-30T06:53:18;11.70;;;9.57;;
52396;SDS011;38322;53.108;6.308;2023-08-30T06:55:43;11.60;;;9.45;;
52396;SDS011;38322;53.108;6.308;2023-08-30T06:58:09;10.75;;;8.90;;
52396;SDS011;38322;53.108;6.308;2023-08-30T07:00:35;12.00;;;9.80;;
52396;SDS011;38322;53.108;6.308;2023-08-30T07:03:01;10.18;;;9.05;;
52396;SDS011;38322;53.108;6.308;2023-08-30T07:05:27;13.20;;;8.80;;
52396;SDS011;38322;53.108;6.308;2023-08-30T07:07:53;12.85;;;9.85;;
52396;SDS011;38322;53.108;6.308;2023-08-30T07:10:19;11.10;;;9.57;;
52396;SDS011;38322;53.108;6.308;2023-08-30T07:12:45;13.73;;;8.65;;
52396;SDS011;38322;53.108;6.308;2023-08-30T07:15:13;12.10;;;10.45;;
52396;SDS011;38322;53.108;6.308;2023-08-30T07:17:41;11.15;;;9.15;;
52396;SDS011;38322;53.108;6.308;2023-08-30T07:20:08;12.00;;;8.50;;
52396;SDS011;38322;53.108;6.308;2023-08-30T07:22:34;11.73;;;8.50;;
52396;SDS011;38322;53.108;6.308;2023-08-30T07:25:00;10.50;;;8.93;;
52396;SDS011;38322;53.108;6.308;2023-08-30T07:27:28;13.85;;;8.57;;
52396;SDS011;38322;53.108;6.308;2023-08-30T07:29:54;13.07;;;8.60;;
52396;SDS011;38322;53.108;6.308;2023-08-30T07:32:19;11.90;;;8.68;;
52396;SDS011;38322;53.108;6.308;2023-08-30T07:34:45;10.55;;;8.90;;
52396;SDS011;38322;53.108;6.308;2023-08-30T07:37:17;11.90;;;8.38;;
52396;SDS011;38322;53.108;6.308;2023-08-30T07:39:46;10.90;;;8.50;;
52396;SDS011;38322;53.108;6.308;2023-08-30T07:42:12;11.82;;;6.93;;
52396;SDS011;38322;53.108;6.308;2023-08-30T07:44:40;9.32;;;7.45;;
52396;SDS011;38322;53.108;6.308;2023-08-30T07:47:06;9.57;;;8.50;;
52396;SDS011;38322;53.108;6.308;2023-08-30T07:49:31;10.43;;;8.02;;
52396;SDS011;38322;53.108;6.308;2023-08-30T07:51:57;9.80;;;8.75;;
52396;SDS011;38322;53.108;6.308;2023-08-30T07:54:23;13.75;;;10.13;;
52396;SDS011;38322;53.108;6.308;2023-08-30T07:56:49;10.68;;;8.40;;
52396;SDS011;38322;53.108;6.308;2023-08-30T07:59:15;11.35;;;8.20;;
52396;SDS011;38322;53.108;6.308;2023-08-30T08:01:41;13.02;;;9.48;;
52396;SDS011;38322;53.108;6.308;2023-08-30T08:04:07;11.88;;;9.25;;
52396;SDS011;38322;53.108;6.308;2023-08-30T08:06:33;10.85;;;8.88;;
52396;SDS011;38322;53.108;6.308;2023-08-30T08:08:59;12.13;;;10.00;;
52396;SDS011;38322;53.108;6.308;2023-08-30T08:11:25;11.43;;;8.35;;
52396;SDS011;38322;53.108;6.308;2023-08-30T08:13:51;11.82;;;8.18;;
52396;SDS011;38322;53.108;6.308;2023-08-30T08:16:17;10.27;;;8.77;;
52396;SDS011;38322;53.108;6.308;2023-08-30T08:18:43;10.75;;;7.90;;
52396;SDS011;38322;53.108;6.308;2023-08-30T08:21:09;12.93;;;7.38;;
52396;SDS011;38322;53.108;6.308;2023-08-30T08:23:34;8.90;;;7.55;;
52396;SDS011;38322;53.108;6.308;2023-08-30T08:26:01;11.77;;;8.93;;
52396;SDS011;38322;53.108;6.308;2023-08-30T08:28:28;10.50;;;7.57;;
52396;SDS011;38322;53.108;6.308;2023-08-30T08:30:54;12.80;;;8.57;;
52396;SDS011;38322;53.108;6.308;2023-08-30T08:33:20;11.52;;;8.93;;
52396;SDS011;38322;53.108;6.308;2023-08-30T08:35:49;11.77;;;7.72;;
52396;SDS011;38322;53.108;6.308;2023-08-30T08:38:15;11.68;;;8.95;;
52396;SDS011;38322;53.108;6.308;2023-08-30T08:40:41;11.82;;;8.13;;
52396;SDS011;38322;53.108;6.308;2023-08-30T08:43:08;12.20;;;9.18;;
52396;SDS011;38322;53.108;6.308;2023-08-30T08:45:36;11.88;;;9.50;;
52396;SDS011;38322;53.108;6.308;2023-08-30T08:48:03;11.38;;;8.82;;
52396;SDS011;38322;53.108;6.308;2023-08-30T08:50:31;13.35;;;8.52;;
52396;SDS011;38322;53.108;6.308;2023-08-30T08:52:57;15.88;;;9.00;;
52396;SDS011;38322;53.108;6.308;2023-08-30T08:55:24;10.30;;;9.00;;
52396;SDS011;38322;53.108;6.308;2023-08-30T08:57:52;9.43;;;7.13;;
52396;SDS011;38322;53.108;6.308;2023-08-30T09:00:19;14.70;;;8.77;;
52396;SDS011;38322;53.108;6.308;2023-08-30T09:02:45;11.50;;;8.18;;
52396;SDS011;38322;53.108;6.308;2023-08-30T09:05:11;8.23;;;7.30;;
52396;SDS011;38322;53.108;6.308;2023-08-30T09:07:37;11.93;;;7.68;;
52396;SDS011;38322;53.108;6.308;2023-08-30T09:10:04;10.05;;;8.00;;
52396;SDS011;38322;53.108;6.308;2023-08-30T09:12:32;12.02;;;8.20;;
52396;SDS011;38322;53.108;6.308;2023-08-30T09:14:59;10.25;;;8.43;;
52396;SDS011;38322;53.108;6.308;2023-08-30T09:17:39;9.00;;;7.95;;
52396;SDS011;38322;53.108;6.308;2023-08-30T09:20:11;8.02;;;7.20;;
52396;SDS011;38322;53.108;6.308;2023-08-30T09:22:38;10.23;;;7.25;;
52396;SDS011;38322;53.108;6.308;2023-08-30T09:25:06;12.68;;;10.43;;
52396;SDS011;38322;53.108;6.308;2023-08-30T09:27:34;12.20;;;8.57;;
52396;SDS011;38322;53.108;6.308;2023-08-30T09:30:02;14.25;;;9.02;;
52396;SDS011;38322;53.108;6.308;2023-08-30T09:32:30;12.32;;;9.60;;
52396;SDS011;38322;53.108;6.308;2023-08-30T09:34:56;11.60;;;8.50;;
52396;SDS011;38322;53.108;6.308;2023-08-30T09:37:22;9.98;;;8.18;;
52396;SDS011;38322;53.108;6.308;2023-08-30T09:39:49;10.10;;;8.50;;
52396;SDS011;38322;53.108;6.308;2023-08-30T09:42:16;9.13;;;8.02;;
52396;SDS011;38322;53.108;6.308;2023-08-30T09:44:43;10.05;;;7.45;;
52396;SDS011;38322;53.108;6.308;2023-08-30T09:47:09;8.30;;;6.90;;
52396;SDS011;38322;53.108;6.308;2023-08-30T09:49:44;10.10;;;6.80;;
52396;SDS011;38322;53.108;6.308;2023-08-30T09:52:14;7.82;;;6.45;;
52396;SDS011;38322;53.108;6.308;2023-08-30T09:54:41;9.65;;;6.60;;
52396;SDS011;38322;53.108;6.308;2023-08-30T09:57:09;7.68;;;5.88;;
52396;SDS011;38322;53.108;6.308;2023-08-30T09:59:36;9.82;;;7.68;;
52396;SDS011;38322;53.108;6.308;2023-08-30T10:02:03;6.38;;;5.65;;
52396;SDS011;38322;53.108;6.308;2023-08-30T10:04:31;10.55;;;6.40;;
52396;SDS011;38322;53.108;6.308;2023-08-30T10:06:58;7.95;;;7.10;;
52396;SDS011;38322;53.108;6.308;2023-08-30T10:09:24;11.60;;;7.90;;
52396;SDS011;38322;53.108;6.308;2023-08-30T10:11:51;11.75;;;7.90;;
52396;SDS011;38322;53.108;6.308;2023-08-30T10:14:17;9.48;;;6.75;;
52396;SDS011;38322;53.108;6.308;2023-08-30T10:16:44;8.77;;;7.15;;
52396;SDS011;38322;53.108;6.308;2023-08-30T10:19:16;10.38;;;7.78;;
52396;SDS011;38322;53.108;6.308;2023-08-30T10:21:54;8.55;;;6.80;;
52396;SDS011;38322;53.108;6.308;2023-08-30T10:24:26;8.95;;;6.45;;
52396;SDS011;38322;53.108;6.308;2023-08-30T10:26:54;6.72;;;4.85;;
52396;SDS011;38322;53.108;6.308;2023-08-30T10:29:22;8.52;;;5.32;;
52396;SDS011;38322;53.108;6.308;2023-08-30T10:31:49;9.15;;;6.75;;
52396;SDS011;38322;53.108;6.308;2023-08-30T10:34:15;6.22;;;5.07;;
52396;SDS011;38322;53.108;6.308;2023-08-30T10:36:42;6.93;;;5.47;;
52396;SDS011;38322;53.108;6.308;2023-08-30T10:39:12;6.50;;;5.20;;
52396;SDS011;38322;53.108;6.308;2023-08-30T10:41:53;6.80;;;5.00;;
52396;SDS011;38322;53.108;6.308;2023-08-30T10:44:21;5.30;;;4.68;;
52396;SDS011;38322;53.108;6.308;2023-08-30T10:46:52;5.40;;;4.40;;
52396;SDS011;38322;53.108;6.308;2023-08-30T10:49:19;7.05;;;4.32;;
52396;SDS011;38322;53.108;6.308;2023-08-30T10:51:53;6.00;;;4.32;;
52396;SDS011;38322;53.108;6.308;2023-08-30T10:54:21;7.05;;;4.70;;
52396;SDS011;38322;53.108;6.308;2023-08-30T10:59:38;7.40;;;6.03;;
52396;SDS011;38322;53.108;6.308;2023-08-30T11:02:04;6.05;;;4.68;;
52396;SDS011;38322;53.108;6.308;2023-08-30T11:04:31;6.63;;;4.30;;
52396;SDS011;38322;53.108;6.308;2023-08-30T11:06:57;6.13;;;4.55;;
52396;SDS011;38322;53.108;6.308;2023-08-30T11:09:23;6.28;;;4.63;;
52396;SDS011;38322;53.108;6.308;2023-08-30T11:11:50;5.75;;;4.45;;
52396;SDS011;38322;53.108;6.308;2023-08-30T11:14:18;5.88;;;4.32;;
52396;SDS011;38322;53.108;6.308;2023-08-30T11:16:44;3.53;;;3.13;;
52396;SDS011;38322;53.108;6.308;2023-08-30T11:19:10;5.03;;;3.55;;
52396;SDS011;38322;53.108;6.308;2023-08-30T11:21:38;4.32;;;3.92;;
52396;SDS011;38322;53.108;6.308;2023-08-30T11:24:05;5.32;;;3.83;;
52396;SDS011;38322;53.108;6.308;2023-08-30T11:26:32;3.83;;;2.78;;
52396;SDS011;38322;53.108;6.308;2023-08-30T11:29:03;4.13;;;3.65;;
52396;SDS011;38322;53.108;6.308;2023-08-30T11:33:57;3.92;;;3.05;;
52396;SDS011;38322;53.108;6.308;2023-08-30T11:36:26;5.40;;;3.75;;
52396;SDS011;38322;53.108;6.308;2023-08-30T11:38:55;8.55;;;5.28;;
52396;SDS011;38322;53.108;6.308;2023-08-30T11:41:21;5.32;;;4.55;;
52396;SDS011;38322;53.108;6.308;2023-08-30T11:43:48;4.95;;;3.80;;
52396;SDS011;38322;53.108;6.308;2023-08-30T11:46:14;5.38;;;4.18;;
52396;SDS011;38322;53.108;6.308;2023-08-30T11:48:41;5.95;;;4.15;;
52396;SDS011;38322;53.108;6.308;2023-08-30T11:51:07;5.47;;;4.60;;
52396;SDS011;38322;53.108;6.308;2023-08-30T11:53:34;4.95;;;3.90;;
52396;SDS011;38322;53.108;6.308;2023-08-30T11:56:01;4.40;;;4.00;;
52396;SDS011;38322;53.108;6.308;2023-08-30T11:58:27;5.70;;;4.40;;
52396;SDS011;38322;53.108;6.308;2023-08-30T12:00:53;5.60;;;5.00;;
52396;SDS011;38322;53.108;6.308;2023-08-30T12:03:20;5.22;;;4.22;;
52396;SDS011;38322;53.108;6.308;2023-08-30T12:05:46;5.93;;;5.22;;
52396;SDS011;38322;53.108;6.308;2023-08-30T12:08:17;5.85;;;4.38;;
52396;SDS011;38322;53.108;6.308;2023-08-30T12:10:44;7.72;;;5.40;;
52396;SDS011;38322;53.108;6.308;2023-08-30T12:13:21;7.55;;;4.88;;
52396;SDS011;38322;53.108;6.308;2023-08-30T12:15:47;7.15;;;4.85;;
52396;SDS011;38322;53.108;6.308;2023-08-30T12:18:13;6.07;;;5.43;;
52396;SDS011;38322;53.108;6.308;2023-08-30T12:20:39;8.75;;;5.05;;
52396;SDS011;38322;53.108;6.308;2023-08-30T12:23:05;9.40;;;6.28;;
52396;SDS011;38322;53.108;6.308;2023-08-30T12:25:31;6.50;;;5.47;;
52396;SDS011;38322;53.108;6.308;2023-08-30T12:27:59;7.45;;;6.75;;
52396;SDS011;38322;53.108;6.308;2023-08-30T12:30:24;8.68;;;5.97;;
52396;SDS011;38322;53.108;6.308;2023-08-30T12:32:50;11.32;;;7.45;;
52396;SDS011;38322;53.108;6.308;2023-08-30T12:35:25;9.40;;;7.43;;
52396;SDS011;38322;53.108;6.308;2023-08-30T12:37:51;8.43;;;7.32;;
52396;SDS011;38322;53.108;6.308;2023-08-30T12:40:17;9.27;;;6.78;;
52396;SDS011;38322;53.108;6.308;2023-08-30T12:42:43;8.50;;;6.45;;
52396;SDS011;38322;53.108;6.308;2023-08-30T12:45:08;9.02;;;7.57;;
52396;SDS011;38322;53.108;6.308;2023-08-30T12:47:35;8.85;;;7.40;;
52396;SDS011;38322;53.108;6.308;2023-08-30T12:50:01;8.77;;;7.90;;
52396;SDS011;38322;53.108;6.308;2023-08-30T12:52:27;10.52;;;7.57;;
52396;SDS011;38322;53.108;6.308;2023-08-30T12:54:53;9.90;;;8.10;;
52396;SDS011;38322;53.108;6.308;2023-08-30T12:57:19;9.23;;;7.72;;
52396;SDS011;38322;53.108;6.308;2023-08-30T12:59:45;10.70;;;8.05;;
52396;SDS011;38322;53.108;6.308;2023-08-30T13:02:11;9.38;;;8.45;;
52396;SDS011;38322;53.108;6.308;2023-08-30T13:04:37;10.57;;;9.40;;
52396;SDS011;38322;53.108;6.308;2023-08-30T13:07:03;9.52;;;8.00;;
52396;SDS011;38322;53.108;6.308;2023-08-30T13:09:29;11.63;;;8.55;;
52396;SDS011;38322;53.108;6.308;2023-08-30T13:11:55;11.43;;;9.65;;
52396;SDS011;38322;53.108;6.308;2023-08-30T13:14:21;9.90;;;8.80;;
52396;SDS011;38322;53.108;6.308;2023-08-30T13:16:46;12.15;;;8.07;;
52396;SDS011;38322;53.108;6.308;2023-08-30T13:19:12;9.73;;;8.73;;
52396;SDS011;38322;53.108;6.308;2023-08-30T13:21:38;9.57;;;8.35;;
52396;SDS011;38322;53.108;6.308;2023-08-30T13:24:04;9.00;;;7.95;;
52396;SDS011;38322;53.108;6.308;2023-08-30T13:26:30;11.48;;;8.50;;
52396;SDS011;38322;53.108;6.308;2023-08-30T13:28:56;9.05;;;7.70;;
52396;SDS011;38322;53.108;6.308;2023-08-30T13:31:24;8.90;;;8.10;;
52396;SDS011;38322;53.108;6.308;2023-08-30T13:33:50;10.57;;;8.20;;
52396;SDS011;38322;53.108;6.308;2023-08-30T13:36:16;8.85;;;7.97;;
52396;SDS011;38322;53.108;6.308;2023-08-30T13:38:41;10.05;;;7.68;;
52396;SDS011;38322;53.108;6.308;2023-08-30T13:41:07;13.15;;;8.48;;
52396;SDS011;38322;53.108;6.308;2023-08-30T13:43:33;8.75;;;7.85;;
52396;SDS011;38322;53.108;6.308;2023-08-30T13:45:59;9.38;;;7.95;;
52396;SDS011;38322;53.108;6.308;2023-08-30T13:48:25;8.77;;;7.82;;
52396;SDS011;38322;53.108;6.308;2023-08-30T13:50:51;8.50;;;7.53;;
52396;SDS011;38322;53.108;6.308;2023-08-30T13:53:17;7.85;;;6.82;;
52396;SDS011;38322;53.108;6.308;2023-08-30T13:55:45;8.43;;;6.50;;
52396;SDS011;38322;53.108;6.308;2023-08-30T13:58:14;9.25;;;8.23;;
52396;SDS011;38322;53.108;6.308;2023-08-30T14:00:40;8.07;;;6.90;;
52396;SDS011;38322;53.108;6.308;2023-08-30T14:03:06;9.13;;;6.68;;
52396;SDS011;38322;53.108;6.308;2023-08-30T14:05:33;9.43;;;7.20;;
52396;SDS011;38322;53.108;6.308;2023-08-30T14:07:59;7.25;;;6.55;;
52396;SDS011;38322;53.108;6.308;2023-08-30T14:10:25;6.15;;;5.55;;
52396;SDS011;38322;53.108;6.308;2023-08-30T14:12:50;6.78;;;6.07;;
52396;SDS011;38322;53.108;6.308;2023-08-30T14:15:16;6.10;;;5.50;;
52396;SDS011;38322;53.108;6.308;2023-08-30T14:17:43;6.85;;;6.15;;
52396;SDS011;38322;53.108;6.308;2023-08-30T14:20:09;7.30;;;6.50;;
52396;SDS011;38322;53.108;6.308;2023-08-30T14:22:35;5.38;;;4.88;;
52396;SDS011;38322;53.108;6.308;2023-08-30T14:25:02;6.22;;;5.57;;
52396;SDS011;38322;53.108;6.308;2023-08-30T14:27:28;6.95;;;6.30;;
52396;SDS011;38322;53.108;6.308;2023-08-30T14:29:54;7.15;;;6.45;;
52396;SDS011;38322;53.108;6.308;2023-08-30T14:32:20;8.93;;;7.50;;
52396;SDS011;38322;53.108;6.308;2023-08-30T14:34:46;7.88;;;6.05;;
52396;SDS011;38322;53.108;6.308;2023-08-30T14:37:12;7.50;;;6.38;;
52396;SDS011;38322;53.108;6.308;2023-08-30T14:39:38;6.30;;;5.70;;
52396;SDS011;38322;53.108;6.308;2023-08-30T14:42:04;5.28;;;4.78;;
52396;SDS011;38322;53.108;6.308;2023-08-30T14:44:31;6.35;;;5.70;;
52396;SDS011;38322;53.108;6.308;2023-08-30T14:46:57;4.20;;;3.65;;
52396;SDS011;38322;53.108;6.308;2023-08-30T14:49:23;4.18;;;3.78;;
52396;SDS011;38322;53.108;6.308;2023-08-30T14:51:48;2.30;;;1.98;;
52396;SDS011;38322;53.108;6.308;2023-08-30T14:54:14;2.55;;;2.35;;
52396;SDS011;38322;53.108;6.308;2023-08-30T14:56:41;5.43;;;2.85;;
52396;SDS011;38322;53.108;6.308;2023-08-30T14:59:07;2.78;;;2.58;;
52396;SDS011;38322;53.108;6.308;2023-08-30T15:01:32;1.35;;;1.13;;
52396;SDS011;38322;53.108;6.308;2023-08-30T15:03:58;1.13;;;0.88;;
52396;SDS011;38322;53.108;6.308;2023-08-30T15:06:24;1.15;;;0.70;;
52396;SDS011;38322;53.108;6.308;2023-08-30T15:08:50;1.63;;;1.20;;
52396;SDS011;38322;53.108;6.308;2023-08-30T15:11:16;1.98;;;1.65;;
52396;SDS011;38322;53.108;6.308;2023-08-30T15:13:42;1.65;;;1.45;;
52396;SDS011;38322;53.108;6.308;2023-08-30T15:16:08;1.95;;;1.55;;
52396;SDS011;38322;53.108;6.308;2023-08-30T15:18:34;2.92;;;1.30;;
52396;SDS011;38322;53.108;6.308;2023-08-30T15:21:01;2.55;;;1.92;;
52396;SDS011;38322;53.108;6.308;2023-08-30T15:23:27;3.10;;;1.90;;
52396;SDS011;38322;53.108;6.308;2023-08-30T15:25:53;2.22;;;2.03;;
52396;SDS011;38322;53.108;6.308;2023-08-30T15:28:18;2.90;;;1.88;;
52396;SDS011;38322;53.108;6.308;2023-08-30T15:30:45;5.03;;;2.40;;
52396;SDS011;38322;53.108;6.308;2023-08-30T15:33:11;3.17;;;2.80;;
52396;SDS011;38322;53.108;6.308;2023-08-30T15:35:38;4.63;;;3.58;;
52396;SDS011;38322;53.108;6.308;2023-08-30T15:38:04;5.70;;;3.92;;
52396;SDS011;38322;53.108;6.308;2023-08-30T15:40:31;7.00;;;3.65;;
52396;SDS011;38322;53.108;6.308;2023-08-30T15:42:58;5.10;;;4.45;;
52396;SDS011;38322;53.108;6.308;2023-08-30T15:45:24;7.30;;;4.55;;
52396;SDS011;38322;53.108;6.308;2023-08-30T15:47:50;5.72;;;4.35;;
52396;SDS011;38322;53.108;6.308;2023-08-30T15:50:16;7.82;;;4.78;;
52396;SDS011;38322;53.108;6.308;2023-08-30T15:52:42;6.90;;;4.55;;
52396;SDS011;38322;53.108;6.308;2023-08-30T15:55:08;4.95;;;4.55;;
52396;SDS011;38322;53.108;6.308;2023-08-30T15:57:34;7.10;;;4.53;;
52396;SDS011;38322;53.108;6.308;2023-08-30T16:00:00;5.30;;;3.80;;
52396;SDS011;38322;53.108;6.308;2023-08-30T16:02:26;6.00;;;3.80;;
52396;SDS011;38322;53.108;6.308;2023-08-30T16:04:52;5.65;;;4.68;;
52396;SDS011;38322;53.108;6.308;2023-08-30T16:07:18;13.85;;;5.88;;
52396;SDS011;38322;53.108;6.308;2023-08-30T16:09:43;6.18;;;4.38;;
52396;SDS011;38322;53.108;6.308;2023-08-30T16:12:13;7.45;;;5.20;;
52396;SDS011;38322;53.108;6.308;2023-08-30T16:14:39;7.20;;;4.57;;
52396;SDS011;38322;53.108;6.308;2023-08-30T16:17:05;7.25;;;4.53;;
52396;SDS011;38322;53.108;6.308;2023-08-30T16:19:31;10.48;;;4.30;;
52396;SDS011;38322;53.108;6.308;2023-08-30T16:22:01;7.45;;;3.45;;
52396;SDS011;38322;53.108;6.308;2023-08-30T16:24:28;6.22;;;3.97;;
52396;SDS011;38322;53.108;6.308;2023-08-30T16:26:54;8.40;;;4.80;;
52396;SDS011;38322;53.108;6.308;2023-08-30T16:29:22;5.53;;;3.40;;
52396;SDS011;38322;53.108;6.308;2023-08-30T16:31:49;7.50;;;3.83;;
52396;SDS011;38322;53.108;6.308;2023-08-30T16:34:18;8.90;;;4.15;;
52396;SDS011;38322;53.108;6.308;2023-08-30T16:36:45;5.78;;;3.42;;
52396;SDS011;38322;53.108;6.308;2023-08-30T16:39:14;8.85;;;4.78;;
52396;SDS011;38322;53.108;6.308;2023-08-30T16:41:41;6.38;;;2.70;;
52396;SDS011;38322;53.108;6.308;2023-08-30T16:44:07;6.20;;;2.10;;
52396;SDS011;38322;53.108;6.308;2023-08-30T16:46:33;6.35;;;2.47;;
52396;SDS011;38322;53.108;6.308;2023-08-30T16:49:01;5.82;;;0.68;;
52396;SDS011;38322;53.108;6.308;2023-08-30T16:51:27;7.80;;;0.70;;
52396;SDS011;38322;53.108;6.308;2023-08-30T16:53:53;8.85;;;0.82;;
52396;SDS011;38322;53.108;6.308;2023-08-30T16:56:19;2.75;;;0.70;;
52396;SDS011;38322;53.108;6.308;2023-08-30T16:58:45;5.65;;;0.90;;
52396;SDS011;38322;53.108;6.308;2023-08-30T17:01:11;5.93;;;0.95;;
52396;SDS011;38322;53.108;6.308;2023-08-30T17:03:37;2.95;;;1.08;;
52396;SDS011;38322;53.108;6.308;2023-08-30T17:06:03;4.32;;;1.65;;
52396;SDS011;38322;53.108;6.308;2023-08-30T17:08:30;3.45;;;0.75;;
52396;SDS011;38322;53.108;6.308;2023-08-30T17:11:03;3.25;;;1.08;;
52396;SDS011;38322;53.108;6.308;2023-08-30T17:13:31;4.97;;;1.23;;
52396;SDS011;38322;53.108;6.308;2023-08-30T17:15:58;3.30;;;0.68;;
52396;SDS011;38322;53.108;6.308;2023-08-30T17:18:26;6.68;;;1.05;;
52396;SDS011;38322;53.108;6.308;2023-08-30T17:20:53;3.00;;;0.63;;
52396;SDS011;38322;53.108;6.308;2023-08-30T17:23:21;5.80;;;0.82;;
52396;SDS011;38322;53.108;6.308;2023-08-30T17:25:49;3.88;;;1.23;;
52396;SDS011;38322;53.108;6.308;2023-08-30T17:28:16;6.80;;;0.77;;
52396;SDS011;38322;53.108;6.308;2023-08-30T17:30:43;3.88;;;0.80;;
52396;SDS011;38322;53.108;6.308;2023-08-30T17:33:09;7.50;;;1.20;;
52396;SDS011;38322;53.108;6.308;2023-08-30T17:35:35;4.35;;;0.75;;
52396;SDS011;38322;53.108;6.308;2023-08-30T17:38:02;4.10;;;0.95;;
52396;SDS011;38322;53.108;6.308;2023-08-30T17:40:30;3.72;;;1.15;;
52396;SDS011;38322;53.108;6.308;2023-08-30T17:42:57;5.40;;;1.77;;
52396;SDS011;38322;53.108;6.308;2023-08-30T17:45:23;4.75;;;1.10;;
52396;SDS011;38322;53.108;6.308;2023-08-30T17:47:49;6.05;;;1.20;;
52396;SDS011;38322;53.108;6.308;2023-08-30T17:50:15;3.15;;;1.40;;
52396;SDS011;38322;53.108;6.308;2023-08-30T17:52:41;6.78;;;1.17;;
52396;SDS011;38322;53.108;6.308;2023-08-30T17:55:07;3.00;;;0.88;;
52396;SDS011;38322;53.108;6.308;2023-08-30T17:57:38;5.35;;;0.70;;
52396;SDS011;38322;53.108;6.308;2023-08-30T18:00:04;8.30;;;1.52;;
52396;SDS011;38322;53.108;6.308;2023-08-30T18:02:34;4.63;;;1.33;;
52396;SDS011;38322;53.108;6.308;2023-08-30T18:05:01;6.07;;;1.08;;
52396;SDS011;38322;53.108;6.308;2023-08-30T18:07:30;7.80;;;0.80;;
52396;SDS011;38322;53.108;6.308;2023-08-30T18:09:56;2.90;;;0.90;;
52396;SDS011;38322;53.108;6.308;2023-08-30T18:12:22;4.10;;;1.08;;
52396;SDS011;38322;53.108;6.308;2023-08-30T18:14:48;6.50;;;0.95;;
52396;SDS011;38322;53.108;6.308;2023-08-30T18:17:15;3.97;;;0.85;;
52396;SDS011;38322;53.108;6.308;2023-08-30T18:19:44;4.00;;;0.60;;
52396;SDS011;38322;53.108;6.308;2023-08-30T18:22:11;5.18;;;1.42;;
52396;SDS011;38322;53.108;6.308;2023-08-30T18:24:37;4.90;;;1.75;;
52396;SDS011;38322;53.108;6.308;2023-08-30T18:27:03;5.10;;;0.85;;
52396;SDS011;38322;53.108;6.308;2023-08-30T18:29:29;1.90;;;0.75;;
52396;SDS011;38322;53.108;6.308;2023-08-30T18:31:57;4.13;;;0.98;;
52396;SDS011;38322;53.108;6.308;2023-08-30T18:34:23;6.97;;;1.50;;
52396;SDS011;38322;53.108;6.308;2023-08-30T18:36:49;3.13;;;0.70;;
52396;SDS011;38322;53.108;6.308;2023-08-30T18:39:15;11.55;;;0.95;;
52396;SDS011;38322;53.108;6.308;2023-08-30T18:41:42;3.08;;;0.63;;
52396;SDS011;38322;53.108;6.308;2023-08-30T18:44:08;3.55;;;0.80;;
52396;SDS011;38322;53.108;6.308;2023-08-30T18:46:35;2.65;;;0.85;;
52396;SDS011;38322;53.108;6.308;2023-08-30T18:49:00;2.63;;;0.85;;
52396;SDS011;38322;53.108;6.308;2023-08-30T18:51:26;4.65;;;0.70;;
52396;SDS011;38322;53.108;6.308;2023-08-30T18:53:53;3.75;;;0.70;;
52396;SDS011;38322;53.108;6.308;2023-08-30T18:56:18;6.85;;;0.88;;
52396;SDS011;38322;53.108;6.308;2023-08-30T18:58:45;2.25;;;0.75;;
52396;SDS011;38322;53.108;6.308;2023-08-30T19:01:11;4.95;;;1.88;;
52396;SDS011;38322;53.108;6.308;2023-08-30T19:03:40;6.57;;;0.77;;
52396;SDS011;38322;53.108;6.308;2023-08-30T19:06:06;3.13;;;0.50;;
52396;SDS011;38322;53.108;6.308;2023-08-30T19:08:33;2.53;;;0.50;;
52396;SDS011;38322;53.108;6.308;2023-08-30T19:10:59;3.95;;;1.00;;
52396;SDS011;38322;53.108;6.308;2023-08-30T19:13:25;5.47;;;0.70;;
52396;SDS011;38322;53.108;6.308;2023-08-30T19:15:52;2.80;;;0.75;;
52396;SDS011;38322;53.108;6.308;2023-08-30T19:18:17;1.70;;;0.57;;
52396;SDS011;38322;53.108;6.308;2023-08-30T19:20:43;4.18;;;0.70;;
52396;SDS011;38322;53.108;6.308;2023-08-30T19:23:09;4.10;;;1.13;;
52396;SDS011;38322;53.108;6.308;2023-08-30T19:25:35;1.42;;;0.70;;
52396;SDS011;38322;53.108;6.308;2023-08-30T19:28:01;1.65;;;0.50;;
52396;SDS011;38322;53.108;6.308;2023-08-30T19:30:27;1.67;;;0.63;;
52396;SDS011;38322;53.108;6.308;2023-08-30T19:32:53;2.22;;;0.73;;
52396;SDS011;38322;53.108;6.308;2023-08-30T19:35:19;3.40;;;0.88;;
52396;SDS011;38322;53.108;6.308;2023-08-30T19:37:45;3.30;;;0.68;;
52396;SDS011;38322;53.108;6.308;2023-08-30T19:40:12;3.60;;;0.57;;
52396;SDS011;38322;53.108;6.308;2023-08-30T19:42:38;2.35;;;0.60;;
52396;SDS011;38322;53.108;6.308;2023-08-30T19:45:05;1.75;;;0.20;;
52396;SDS011;38322;53.108;6.308;2023-08-30T19:47:32;1.38;;;0.30;;